Flight Track Log - Related Links

Times and Time Zones

All times are in EDT time to prevent confusion due to time zone crossing. See the DAL636 flight status page for this flight to view local times or setup timezone preferences in your user account.

Time Position Orientation Groundspeed Altitude Reporting Facility
EDT Latitude Longitude Course Direction KTS MPH feet Rate Location/Type
Fri 05:21:19 PM 46.0000 -159.9833 95° East 553 636 40,000  Level Oakland Oceanic (ODAPS)
Fri 05:31:36 PM 45.8500 -157.7000 96° East 550 633 40,000  Level Oakland Oceanic (ODAPS)
Fri 05:45:28 PM 45.5833 -154.7167 98° East 551 634 40,000  Level Oakland Oceanic (ODAPS)
Fri 05:59:20 PM 45.2333 -151.7167 100° East 550 633 40,000  Level Oakland Oceanic (ODAPS)
Fri 06:07:39 PM 45.0000 -149.9833 103° East 538 619 40,000  Level Oakland Oceanic (ODAPS)
Fri 06:13:12 PM 44.8000 -148.7667 103° East 532 612 40,000  Level Oakland Oceanic (ODAPS)
Fri 06:27:12 PM 44.3167 -145.9667 105° East 528 608 40,000 32 Level Oakland Oceanic (ODAPS)
Fri 06:41:11 PM 43.7500 -143.2333 107° East 521 600 40,900 36 Climbing Oakland Oceanic (ODAPS)
Fri 06:54:48 PM 43.1500 -140.6000 109° East 518 596 41,000 Climbing Oakland Oceanic (ODAPS)
Fri 06:58:16 PM 43.0000 -140.0000 108° East 517 595 41,000  Level Oakland Oceanic (ODAPS)
Fri 07:08:40 PM 42.5000 -138.0167 110° East 515 593 41,000  Level Oakland Oceanic (ODAPS)
Fri 07:22:32 PM 41.8000 -135.5500 111° Southeast 507 583 41,000  Level Oakland Oceanic (ODAPS)
Fri 07:36:24 PM 41.0667 -133.1500 113° Southeast 508 585 41,000  Level Oakland Oceanic (ODAPS)
Fri 07:50:16 PM 40.2833 -130.8000 115° Southeast 499 574 41,000  Level Oakland Oceanic (ODAPS)
Fri 07:55:15 PM 40.0000 -130.0000 118° Southeast 510 587 41,000  Level Oakland Oceanic (ODAPS)
Fri 07:55:29 PM 39.9667 -129.9167 123° Southeast 510 587 41,000  Level Oakland Oceanic (ODAPS)
Fri 08:03:55 PM 39.3000 -128.6000 123° Southeast 507 583 41,000  Level Oakland Oceanic (ODAPS)
Fri 08:12:34 PM 38.6389 -127.3208 120° Southeast 510 587 41,000  Level Oakland Center
Fri 08:13:13 PM 38.6000 -127.2333 126° Southeast 505 581 41,000  Level Oakland Oceanic (ODAPS)
Fri 08:14:33 PM 38.4814 -127.0231 117° Southeast 510 587 41,000  Level Oakland Center
Fri 08:15:34 PM 38.4167 -126.8611 114° Southeast 505 581 41,000  Level Oakland Center
Fri 08:16:33 PM 38.3619 -126.7031 115° Southeast 500 575 41,000  Level Oakland Center
Fri 08:17:34 PM 38.3028 -126.5422 115° Southeast 495 570 41,000  Level Oakland Center
Fri 08:18:34 PM 38.2417 -126.3764 112° Southeast 501 577 41,000  Level Oakland Center
Fri 08:19:33 PM 38.1906 -126.2167 116° Southeast 501 577 41,000  Level Oakland Center
Fri 08:20:34 PM 38.1286 -126.0564 115° Southeast 495 570 41,000  Level Oakland Center
Fri 08:21:34 PM 38.0686 -125.8964 115° Southeast 500 575 41,000  Level Oakland Center
Fri 08:22:33 PM 38.0067 -125.7314 115° Southeast 505 581 41,000  Level Oakland Center
Fri 08:24:34 PM 37.8858 -125.4078 117° Southeast 505 581 41,000  Level Oakland Center
Fri 08:25:34 PM 37.8208 -125.2461 114° Southeast 505 581 41,000  Level Oakland Center
Fri 08:26:34 PM 37.7619 -125.0825 117° Southeast 505 581 41,000  Level Oakland Center
Fri 08:27:34 PM 37.6967 -124.9189 116° Southeast 505 581 41,000  Level Oakland Center
Fri 08:28:34 PM 37.6331 -124.7581 115° Southeast 510 587 41,000  Level Oakland Center
Fri 08:29:33 PM 37.5736 -124.5950 117° Southeast 510 587 41,000  Level Oakland Center
Fri 08:30:34 PM 37.5078 -124.4294 117° Southeast 515 593 41,000  Level Oakland Center
Fri 08:31:34 PM 37.4433 -124.2697 116° Southeast 515 593 41,000  Level Oakland Center
Fri 08:32:34 PM 37.3811 -124.1100 117° Southeast 515 593 41,000  Level Oakland Center
Fri 08:33:33 PM 37.3164 -123.9506 117° Southeast 515 593 41,000  Level Oakland Center
Fri 08:34:34 PM 37.2514 -123.7889 117° Southeast 510 587 41,000  Level Oakland Center
Fri 08:35:34 PM 37.1883 -123.6328 117° Southeast 510 587 41,000  Level Oakland Center
Fri 08:36:33 PM 37.1172 -123.4556 116° Southeast 510 587 41,000  Level Oakland Center
Fri 08:37:33 PM 37.0556 -123.3000 118° Southeast 510 587 41,000  Level Oakland Center
Fri 08:38:34 PM 36.9897 -123.1419 116° Southeast 510 587 41,000  Level Oakland Center
Fri 08:39:34 PM 36.9258 -122.9817 118° Southeast 505 581 41,000  Level Oakland Center
Fri 08:40:34 PM 36.8597 -122.8242 117° Southeast 505 581 41,000  Level Oakland Center
Fri 08:41:34 PM 36.7953 -122.6669 117° Southeast 505 581 41,000  Level Oakland Center
Fri 08:42:34 PM 36.7306 -122.5103 122° Southeast 505 581 41,000 -100 Level Oakland Center
Fri 08:43:34 PM 36.6575 -122.3636 123° Southeast 505 581 40,800 -605 Descending Oakland Center
Fri 08:44:33 PM 36.5819 -122.2175 122° Southeast 505 581 39,800 -1,000 Descending Oakland Center
Fri 08:45:34 PM 36.5061 -122.0689 120° Southeast 505 581 38,800 -1,000 Descending Oakland Center
Fri 08:46:33 PM 36.4367 -121.9208 120° Southeast 505 581 37,800 -900 Descending Oakland Center
Fri 08:47:34 PM 36.3769 -121.7911 122° Southeast 500 575 37,000 -900 Descending Oakland Center
Fri 08:48:33 PM 36.3050 -121.6486 123° Southeast 490 564 36,000 -1,008 Descending Oakland Center
Fri 08:49:33 PM 36.2347 -121.5167 122° Southeast 478 550 35,000 -496 Descending Oakland Center
Fri 08:50:34 PM 36.1664 -121.3825 123° Southeast 466 536 35,000  Level Oakland Center
Fri 08:51:33 PM 36.0958 -121.2458 121° Southeast 466 536 35,000  Level Oakland Center
Fri 08:52:34 PM 36.0294 -121.1097 123° Southeast 466 536 35,000  Level Oakland Center
Fri 08:53:33 PM 35.9586 -120.9761 123° Southeast 461 531 35,000  Level Oakland Center
Fri 08:55:10 PM 35.8403 -120.7481 123° Southeast 481 554 35,000  Level Los Angeles Center
Fri 08:56:10 PM 35.7664 -120.6058 123° Southeast 487 560 35,000  Level Los Angeles Center
Fri 08:57:10 PM 35.6922 -120.4661 124° Southeast 492 566 35,000 -50 Level Los Angeles Center
Fri 08:58:10 PM 35.6178 -120.3292 127° Southeast 492 566 34,900  Descending Los Angeles Center
Fri 08:59:10 PM 35.5367 -120.1950 137° Southeast 492 566 35,000  Climbing Los Angeles Center
Fri 09:00:10 PM 35.4361 -120.0803 137° Southeast 486 559 34,900 -50 Descending Los Angeles Center
Fri 09:01:10 PM 35.3394 -119.9686 137° Southeast 486 559 34,900 -500 Level Los Angeles Center
Fri 09:02:10 PM 35.2408 -119.8572 138° Southeast 481 554 33,900 -1,000 Descending Los Angeles Center
Fri 09:03:10 PM 35.1419 -119.7486 138° Southeast 481 554 32,900 -1,100 Descending Los Angeles Center
Fri 09:04:10 PM 35.0428 -119.6378 137° Southeast 481 554 31,700 -1,900 Descending Los Angeles Center
Fri 09:05:10 PM 34.9439 -119.5244 139° Southeast 481 554 29,100 -2,400 Descending Los Angeles Center
Fri 09:06:10 PM 34.8444 -119.4192 138° Southeast 481 554 26,900 -2,200 Descending Los Angeles Center
Fri 09:07:10 PM 34.7511 -119.3169 137° Southeast 471 542 24,700 -2,200 Descending Los Angeles Center
Fri 09:08:10 PM 34.6600 -119.2147 139° Southeast 459 528 22,500 -2,300 Descending Los Angeles Center
Fri 09:09:10 PM 34.5603 -119.1103 140° Southeast 441 507 20,100 -2,100 Descending Los Angeles Center
Fri 09:10:10 PM 34.4789 -119.0267 137° Southeast 441 507 18,300 -1,950 Descending Los Angeles Center
Fri 09:11:10 PM 34.3956 -118.9331 150° Southeast 423 487 16,200 -2,100 Descending Los Angeles Center
Fri 09:12:10 PM 34.3031 -118.8672 172° South 417 480 14,100 -1,600 Descending Los Angeles Center
Fri 09:13:10 PM 34.2117 -118.8517 177° South 352 405 13,000 -1,000 Descending Los Angeles Center
Fri 09:14:10 PM 34.1303 -118.8464 162° South 325 374 12,100 -800 Descending Los Angeles Center
Fri 09:15:10 PM 34.0600 -118.8192 100° East 292 336 11,400 -850 Descending Los Angeles Center
Fri 09:16:10 PM 34.0472 -118.7311 101° East 225 259 10,400 -738 Descending Los Angeles Center
Fri 09:17:12 PM 34.0325 -118.6378 98° East 231 266 9,900 -1,000 Descending Los Angeles Center
Fri 09:18:22 PM 34.0200 -118.5347 99° East 246 283 8,200 -1,338 Descending Los Angeles Center
Fri 09:19:22 PM 34.0092 -118.4492 83° East 246 283 7,000 -1,300 Descending Los Angeles Center
Fri 09:20:22 PM 34.0167 -118.3717 90° East 241 277 5,600 -1,355 Descending Los Angeles Center
Fri 09:20:55 PM 34.0167 -118.3333 90° East 225 259 4,900 -1,277 Descending Southern California TRACON
Fri 09:21:56 PM 34.0167 -118.2500 140° Southeast 216 249 3,600 -1,140 Descending Southern California TRACON
Fri 09:22:56 PM 33.9833 -118.2167 253° West 207 238 2,600 -750 Descending Southern California TRACON
Fri 09:23:56 PM 33.9667 -118.2833 270° West 185 213 2,100 -619 Descending Southern California TRACON
Fri 09:25:02 PM 33.9667 -118.3333 239° Southwest 145 167 1,300 -750 Descending Southern California TRACON
Fri 09:25:56 PM 33.9500 -118.3667 267° West 124 143 600 -514 Descending Southern California TRACON
Fri 09:27:22 PM 33.9467 -118.4350 267° West 129 148 100 -349 Descending Los Angeles Center

Login

Don't have an account? Register now (free) for customized features, flight alerts, and more!